Time;durP1;ratioP1;P1;durP2;ratioP2;P2;SDS_P1;SDS_P2;PMS_P1;PMS_P2;Temp;Humidity;BMP_temperature;BMP_pressure;BME280_temperature;BME280_humidity;BME280_pressure;Samples;Min_cycle;Max_cycle;Signal;HPM_P1;HPM_P2
2022/06/04 07:30:23;;;;;;;3.47;2.10;;;;;;;14.92;63.80;102167.91;5094857;27;110744;-34
2022/06/04 07:32:48;;;;;;;5.88;2.40;;;;;;;15.02;63.62;102166.41;5100768;27;99488;-35
2022/06/04 07:35:49;;;;;;;7.55;2.78;;;;;;;15.10;64.05;102174.13;5101945;27;97296;-35
2022/06/04 07:38:15;;;;;;;5.57;2.75;;;;;;;15.12;63.39;102170.34;5101500;27;96544;-35
2022/06/04 07:40:41;;;;;;;4.53;2.42;;;;;;;15.18;63.84;102167.25;5082811;27;96949;-34
2022/06/04 07:43:32;;;;;;;4.75;2.47;;;;;;;15.38;63.22;102163.31;5100730;27;97931;-35
2022/06/04 07:45:57;;;;;;;4.95;2.28;;;;;;;15.46;62.83;102154.66;5082322;27;97282;-35
2022/06/04 07:48:23;;;;;;;4.00;2.03;;;;;;;15.63;62.54;102159.94;5101494;27;96644;-35
2022/06/04 07:50:48;;;;;;;8.15;2.30;;;;;;;15.81;62.84;102159.81;5101144;27;96833;-35
2022/06/04 07:53:13;;;;;;;3.92;2.10;;;;;;;16.18;61.52;102149.28;5100589;27;99369;-35
2022/06/04 07:55:41;;;;;;;3.92;2.38;;;;;;;16.27;61.38;102145.94;5100585;27;99188;-35
2022/06/04 07:58:06;;;;;;;6.95;2.35;;;;;;;16.31;61.16;102158.44;5081684;27;96542;-35
2022/06/04 08:00:37;;;;;;;9.82;2.53;;;;;;;16.29;61.13;102158.53;5101490;27;96788;-35
2022/06/04 08:03:02;;;;;;;4.78;2.70;;;;;;;16.09;61.76;102167.16;5100885;27;97836;-35
2022/06/04 08:05:28;;;;;;;6.40;2.45;;;;;;;16.00;62.12;102167.75;5100439;27;99337;-35
2022/06/04 08:07:53;;;;;;;7.75;2.85;;;;;;;15.99;61.90;102160.50;5100423;27;96593;-35
2022/06/04 08:10:18;;;;;;;4.30;2.42;;;;;;;15.93;61.77;102159.91;5101149;27;96856;-34
2022/06/04 08:12:47;;;;;;;5.30;2.38;;;;;;;15.93;61.85;102159.91;5100482;27;97508;-35
2022/06/04 08:15:14;;;;;;;5.70;2.47;;;;;;;15.85;62.38;102173.19;5081788;27;101105;-35
2022/06/04 08:17:40;;;;;;;9.70;2.45;;;;;;;15.85;62.51;102173.19;5100258;27;96649;-34
2022/06/04 08:20:05;;;;;;;4.47;2.47;;;;;;;15.81;62.50;102168.03;5100545;27;96866;-35
2022/06/04 08:22:31;;;;;;;6.38;2.78;;;;;;;15.86;62.82;102180.41;5099860;27;97471;-34
2022/06/04 08:24:56;;;;;;;3.22;1.98;;;;;;;15.84;62.12;102176.00;5101019;27;97758;-34
2022/06/04 08:27:23;;;;;;;4.18;2.33;;;;;;;15.96;61.96;102190.75;5101066;27;96616;-35
2022/06/04 08:29:48;;;;;;;3.97;2.28;;;;;;;16.00;62.02;102204.16;5100083;27;96780;-34
2022/06/04 08:32:14;;;;;;;4.28;2.33;;;;;;;16.00;62.33;102193.22;5099252;27;99429;-34
2022/06/04 08:34:39;;;;;;;4.55;2.20;;;;;;;16.01;62.18;102184.03;5100389;27;97291;-34
2022/06/04 08:37:06;;;;;;;3.60;1.92;;;;;;;16.01;62.44;102173.09;5100432;27;96662;-34
2022/06/04 08:39:32;;;;;;;4.28;2.22;;;;;;;16.00;62.63;102187.75;5099809;27;97856;-35
2022/06/04 08:42:36;;;;;;;4.95;2.70;;;;;;;16.04;62.45;102181.13;5099674;27;98060;-35
2022/06/04 08:45:01;;;;;;;4.95;2.35;;;;;;;16.05;62.40;102174.66;5100143;27;97869;-34
2022/06/04 08:47:32;;;;;;;4.95;2.47;;;;;;;16.15;62.05;102174.94;5099020;27;96939;-34
2022/06/04 08:50:10;;;;;;;5.80;2.50;;;;;;;16.14;62.15;102181.41;5082129;27;96816;-35
2022/06/04 08:52:40;;;;;;;3.92;2.22;;;;;;;16.09;62.24;102169.91;5099859;27;98127;-34
2022/06/04 08:59:07;;;;;;;4.95;2.30;;;;;;;16.16;62.34;102178.56;5015991;28;96737;-34
2022/06/04 09:01:36;;;;;;;3.97;2.45;;;;;;;16.21;62.08;102169.09;4999545;28;97080;-34
2022/06/04 09:04:40;;;;;;;6.30;2.47;;;;;;;16.29;62.00;102183.16;5057322;27;100814;-34
2022/06/04 09:07:12;;;;;;;7.18;2.45;;;;;;;16.30;61.97;102189.50;5099286;27;99218;-34
2022/06/04 09:09:47;;;;;;;3.40;1.98;;;;;;;16.35;62.17;102196.44;5081534;27;96662;-34
2022/06/04 09:12:22;;;;;;;5.60;2.67;;;;;;;16.39;61.81;102188.03;5081295;27;97253;-34
2022/06/04 09:15:12;;;;;;;4.57;2.20;;;;;;;16.47;61.88;102193.88;5080962;27;100866;-34
2022/06/04 09:17:51;;;;;;;5.72;2.50;;;;;;;16.48;61.79;102192.91;5081017;27;101070;-34
2022/06/04 09:20:34;;;;;;;4.93;2.50;;;;;;;16.54;61.56;102192.50;5081270;27;96642;-34
2022/06/04 09:23:16;;;;;;;5.50;2.22;;;;;;;16.56;61.61;102196.00;5081368;27;96716;-34
2022/06/04 09:29:11;;;;;;;3.83;2.28;;;;;;;16.67;61.35;102187.09;5099678;27;97360;-34
2022/06/04 09:32:03;;;;;;;3.47;2.08;;;;;;;16.65;61.15;102189.06;5099064;27;96783;-34
2022/06/04 09:34:47;;;;;;;7.50;1.90;;;;;;;16.59;61.14;102183.97;5081146;27;96658;-34
2022/06/04 09:37:13;;;;;;;7.03;2.65;;;;;;;16.53;61.31;102175.19;5080549;27;100993;-34
2022/06/04 09:39:41;;;;;;;5.35;3.00;;;;;;;16.52;61.23;102183.53;5080498;27;101413;-34
2022/06/04 09:42:56;;;;;;;11.50;2.83;;;;;;;16.55;61.41;102197.88;5080931;27;96701;-34
2022/06/04 09:45:27;;;;;;;5.00;2.22;;;;;;;16.49;61.64;102195.56;5100000;27;96527;-34
2022/06/04 09:47:58;;;;;;;4.13;2.17;;;;;;;16.49;61.45;102184.63;5080436;27;101313;-34
2022/06/04 09:50:30;;;;;;;5.90;2.28;;;;;;;16.56;61.70;102188.69;5080325;27;100435;-34
2022/06/04 09:53:35;;;;;;;7.80;2.85;;;;;;;16.57;61.57;102192.31;5079972;27;96709;-35
2022/06/04 09:56:14;;;;;;;4.68;2.17;;;;;;;16.62;61.14;102194.75;5099094;27;96708;-35
2022/06/04 09:58:42;;;;;;;6.53;3.10;;;;;;;16.66;61.24;102196.28;5099071;27;97832;-35
2022/06/04 10:01:09;;;;;;;6.50;2.72;;;;;;;16.69;61.40;102198.84;5079946;27;100502;-35
2022/06/04 10:03:37;;;;;;;3.83;2.28;;;;;;;16.72;61.40;102187.69;5099277;27;96591;-35
2022/06/04 10:06:13;;;;;;;6.20;2.38;;;;;;;16.82;60.99;102188.84;5080523;27;96964;-35
2022/06/04 10:11:54;;;;;;;4.07;2.28;;;;;;;16.91;60.82;102174.56;5099148;27;97072;-34
2022/06/04 10:14:56;;;;;;;10.38;3.13;;;;;;;17.01;60.72;102188.50;5080639;27;96706;-35
2022/06/04 10:17:37;;;;;;;;;;;;;;;17.07;61.20;102189.97;5080903;27;96765;-35
2022/06/04 10:20:04;;;;;;;4.63;2.42;;;;;;;17.12;60.89;102187.78;5079166;27;100784;-35
2022/06/04 10:22:29;;;;;;;6.15;2.90;;;;;;;17.11;61.05;102170.50;5079188;27;101733;-35
2022/06/04 10:24:57;;;;;;;4.95;2.55;;;;;;;17.17;60.63;102174.66;5098818;27;96543;-35
2022/06/04 10:28:00;;;;;;;5.68;3.05;;;;;;;17.25;60.88;102185.06;5063366;27;96800;-34
2022/06/04 10:30:31;;;;;;;8.40;3.45;;;;;;;17.31;60.48;102176.47;5097739;27;98907;-35
2022/06/04 10:33:03;;;;;;;6.83;3.17;;;;;;;17.34;60.90;102178.97;5079520;27;100621;-35
2022/06/04 10:35:42;;;;;;;;;;;;;;;17.37;61.11;102185.09;5099536;27;96576;-35
2022/06/04 10:38:53;;;;;;;4.50;2.38;;;;;;;17.45;60.30;102181.84;5099115;27;96898;-35
2022/06/04 10:41:37;;;;;;;6.22;2.70;;;;;;;17.52;61.29;102187.75;5093645;27;99297;-35
2022/06/04 10:44:44;;;;;;;4.43;2.15;;;;;;;17.59;60.40;102189.09;5098333;27;97797;-35
2022/06/04 10:47:28;;;;;;;8.05;2.50;;;;;;;17.71;60.53;102192.84;5079240;27;96795;-35
2022/06/04 10:50:00;;;;;;;6.07;3.13;;;;;;;17.79;60.38;102185.84;5098716;27;96614;-35
2022/06/04 10:52:54;;;;;;;5.00;2.15;;;;;;;17.85;60.64;102181.81;5097956;27;99369;-35
2022/06/04 10:55:35;;;;;;;8.95;3.05;;;;;;;17.93;60.43;102187.63;5086680;27;97336;-35
2022/06/04 10:58:20;;;;;;;8.00;3.47;;;;;;;17.99;60.42;102189.06;5098544;27;96532;-35
2022/06/04 11:00:59;;;;;;;4.85;2.70;;;;;;;18.07;60.36;102193.97;5098541;27;96761;-35
2022/06/04 11:03:33;;;;;;;9.13;2.72;;;;;;;18.18;59.97;102194.97;5079469;27;101044;-35
2022/06/04 11:06:23;;;;;;;4.85;2.40;;;;;;;18.21;59.50;102172.81;5079538;27;100705;-35
2022/06/04 11:08:59;;;;;;;9.55;2.80;;;;;;;18.38;59.60;102188.06;5079704;27;96686;-34
2022/06/04 11:11:39;;;;;;;10.60;3.60;;;;;;;18.41;59.71;102185.06;5079830;27;96888;-35
2022/06/04 11:14:55;;;;;;;7.80;3.25;;;;;;;18.54;59.45;102192.38;5078396;27;101049;-35
2022/06/04 11:17:24;;;;;;;7.22;3.35;;;;;;;18.52;59.80;102176.06;5087907;27;99331;-35
2022/06/04 11:19:57;;;;;;;6.93;2.92;;;;;;;18.62;59.74;102201.81;5079564;27;96841;-35
2022/06/04 11:22:33;;;;;;;5.82;2.97;;;;;;;18.67;59.97;102199.63;5098083;27;96842;-35
2022/06/04 11:24:58;;;;;;;6.68;3.00;;;;;;;18.78;59.35;102195.22;5097484;27;97446;-34
2022/06/04 11:27:35;;;;;;;12.23;3.65;;;;;;;18.86;59.10;102190.91;5097596;27;99175;-35
2022/06/04 11:30:21;;;;;;;7.25;3.05;;;;;;;18.99;58.80;102199.09;5079143;27;96820;-35
2022/06/04 11:33:01;;;;;;;8.35;3.55;;;;;;;19.05;58.48;102190.41;5054635;27;96774;-35
2022/06/04 11:35:33;;;;;;;7.30;3.20;;;;;;;19.08;58.55;102192.03;5040617;27;101100;-35
2022/06/04 11:37:58;;;;;;;;;;;;;;;19.12;58.70;102192.69;5040736;27;100767;-35
2022/06/04 11:40:35;;;;;;;7.27;3.30;;;;;;;19.16;58.29;102188.69;5058071;27;96776;-35
2022/06/04 11:43:11;;;;;;;9.05;4.38;;;;;;;19.15;58.42;102182.31;5058407;27;97019;-35
2022/06/04 11:45:47;;;;;;;8.10;3.75;;;;;;;19.31;58.42;102179.28;5040361;27;100958;-34
2022/06/04 11:48:18;;;;;;;9.82;4.95;;;;;;;19.55;57.53;102170.13;5040426;27;101325;-34
2022/06/04 11:51:01;;;;;;;12.27;4.30;;;;;;;19.80;57.62;102182.81;5058192;27;96804;-35
2022/06/04 11:53:43;;;;;;;11.15;4.43;;;;;;;20.25;56.44;102185.63;5041021;27;96915;-35
2022/06/04 11:56:15;;;;;;;8.65;3.60;;;;;;;20.66;56.20;102173.97;5040204;27;100826;-35
2022/06/04 11:58:58;;;;;;;9.73;4.18;;;;;;;21.20;55.19;102178.59;5040626;27;100927;-35
2022/06/04 12:01:38;;;;;;;11.48;3.55;;;;;;;21.38;54.38;102175.25;5040863;27;96700;-35
2022/06/04 12:04:17;;;;;;;10.38;3.83;;;;;;;21.61;53.88;102165.88;5040550;27;96853;-35
2022/06/04 12:06:51;;;;;;;7.68;4.07;;;;;;;21.87;53.63;102157.19;5039727;27;101156;-35
2022/06/04 12:09:28;;;;;;;10.15;3.95;;;;;;;22.10;52.71;102154.28;5043696;27;100826;-35
2022/06/04 12:12:04;;;;;;;8.68;4.13;;;;;;;22.25;52.73;102148.28;5101154;27;96633;-35
2022/06/04 12:14:38;;;;;;;7.95;3.72;;;;;;;22.32;52.46;102156.88;5082351;27;96755;-35
2022/06/04 12:17:39;;;;;;;11.30;4.18;;;;;;;22.16;52.71;102159.25;5081721;27;101002;-35
2022/06/04 12:26:25;;;;;;;10.15;4.20;;;;;;;22.29;51.95;102159.06;5101820;27;96766;-35
2022/06/04 12:28:51;;;;;;;11.38;4.63;;;;;;;22.29;51.77;102151.66;5100522;27;97166;-35
2022/06/04 12:31:36;;;;;;;12.35;4.50;;;;;;;22.32;51.67;102148.59;5081038;27;101081;-35
2022/06/04 12:34:23;;;;;;;10.18;3.95;;;;;;;22.40;51.63;102146.00;5099985;27;96575;-35
2022/06/04 12:36:52;;;;;;;11.48;4.38;;;;;;;22.46;51.51;102156.50;5100218;27;96872;-35
2022/06/04 12:39:41;;;;;;;17.30;5.18;;;;;;;22.43;51.33;102153.16;5081552;27;101487;-35
2022/06/04 12:42:32;;;;;;;9.30;4.25;;;;;;;22.55;51.45;102149.25;5070267;27;100958;-34
2022/06/04 12:45:03;;;;;;;14.20;4.25;;;;;;;22.63;51.43;102149.41;5096099;27;96936;-35
2022/06/04 12:47:37;;;;;;;12.43;4.47;;;;;;;22.68;50.66;102140.72;5081955;27;96847;-35
2022/06/04 12:50:21;;;;;;;10.93;4.20;;;;;;;22.76;51.07;102151.03;5081159;27;101071;-35
2022/06/04 12:53:00;;;;;;;12.95;5.18;;;;;;;22.57;50.93;102151.88;5100194;27;96514;-35
2022/06/04 12:55:31;;;;;;;12.80;3.92;;;;;;;22.62;51.09;102163.34;5081785;27;96644;-35
2022/06/04 12:58:23;;;;;;;18.90;4.57;;;;;;;22.52;50.84;102145.91;5081645;27;96670;-35
2022/06/04 13:01:02;;;;;;;;;;;;;;;22.31;52.12;102141.34;5099828;27;97941;-35
2022/06/04 13:03:38;;;;;;;11.73;4.80;;;;;;;22.26;51.08;102140.84;5099670;27;99303;-35
2022/06/04 13:06:13;;;;;;;11.32;4.15;;;;;;;22.35;51.07;102141.91;5081380;27;97520;-35
2022/06/04 13:08:51;;;;;;;14.98;4.45;;;;;;;22.38;50.71;102139.78;5099949;27;96625;-35
2022/06/04 13:11:31;;;;;;;16.08;4.60;;;;;;;22.42;50.60;102143.09;5081022;27;100683;-35
2022/06/04 13:14:19;;;;;;;11.05;3.63;;;;;;;22.54;50.35;102141.09;5099000;27;99117;-35
2022/06/04 13:16:55;;;;;;;16.30;4.35;;;;;;;22.52;50.77;102137.59;5081323;27;96639;-35
2022/06/04 13:19:49;;;;;;;14.52;4.25;;;;;;;22.44;49.82;102144.72;5081490;27;96818;-35
2022/06/04 13:22:23;;;;;;;10.43;4.45;;;;;;;22.34;50.64;102138.28;5080805;27;100949;-35
2022/06/04 13:24:49;;;;;;;12.30;4.60;;;;;;;22.26;50.36;102135.34;5099598;27;97815;-35
2022/06/04 13:27:21;;;;;;;16.58;4.97;;;;;;;22.20;50.37;102127.59;5080600;27;96736;-35
2022/06/04 13:29:55;;;;;;;13.00;4.00;;;;;;;22.17;50.23;102123.22;5077162;27;96809;-35
2022/06/04 13:32:22;;;;;;;11.70;4.45;;;;;;;22.19;50.76;102114.78;5077031;27;101120;-35
2022/06/04 13:34:49;;;;;;;12.90;3.95;;;;;;;22.32;50.69;102120.13;5077100;27;101017;-35
2022/06/04 13:37:18;;;;;;;11.13;4.60;;;;;;;22.33;50.75;102121.84;5077613;27;96769;-35
2022/06/04 13:39:47;;;;;;;10.55;4.43;;;;;;;22.42;50.50;102121.88;5077547;27;96875;-35
2022/06/04 13:42:19;;;;;;;10.32;4.38;;;;;;;22.39;50.25;102104.75;5076155;27;100710;-35
2022/06/04 13:44:58;;;;;;;20.40;5.32;;;;;;;22.30;50.17;102102.81;5078080;27;98936;-35
2022/06/04 13:47:29;;;;;;;15.98;4.78;;;;;;;22.27;50.64;102117.78;5077675;27;96852;-34
2022/06/04 13:50:07;;;;;;;;;;;;;;;22.21;50.26;102105.38;5078542;27;96720;-33
2022/06/04 13:52:57;;;;;;;13.15;4.25;;;;;;;22.20;51.24;102105.50;5057270;27;98164;-35
2022/06/04 13:55:34;;;;;;;10.77;4.40;;;;;;;22.24;51.11;102113.41;5077878;27;100792;-35
2022/06/04 13:58:24;;;;;;;13.27;3.67;;;;;;;22.24;51.65;102107.03;5076800;27;96644;-34
2022/06/04 14:00:53;;;;;;;16.33;5.57;;;;;;;22.22;51.34;102103.53;5078224;27;96886;-34
2022/06/04 14:03:45;;;;;;;15.07;6.03;;;;;;;22.17;51.87;102111.31;5075719;27;101215;-35
2022/06/04 14:06:11;;;;;;;7.68;3.90;;;;;;;22.05;51.63;102113.31;5067149;27;100873;-35
2022/06/04 14:09:01;;;;;;;14.15;5.30;;;;;;;21.91;52.17;102100.75;5058228;27;96513;-35
2022/06/04 14:11:40;;;;;;;10.60;4.05;;;;;;;22.00;51.71;102112.81;5061876;27;96803;-35
2022/06/04 14:14:06;;;;;;;12.38;5.20;;;;;;;21.93;51.82;102100.59;5076431;27;99538;-35
2022/06/04 14:16:53;;;;;;;10.52;3.97;;;;;;;22.03;51.96;102102.41;5076973;27;96852;-35
2022/06/04 14:19:45;;;;;;;10.90;4.28;;;;;;;22.00;52.15;102096.25;5076611;27;97162;-35
2022/06/04 14:22:24;;;;;;;11.05;4.13;;;;;;;22.03;52.20;102090.50;5077241;27;96797;-36
2022/06/04 14:25:10;;;;;;;9.85;4.55;;;;;;;22.08;52.14;102092.84;5076154;27;101243;-35
2022/06/04 14:28:04;;;;;;;14.70;4.72;;;;;;;22.09;51.88;102091.81;5076547;27;100847;-35
2022/06/04 14:30:42;;;;;;;10.80;4.78;;;;;;;22.13;52.67;102096.91;5083688;27;96869;-35
2022/06/04 14:33:21;;;;;;;10.82;4.55;;;;;;;22.15;51.92;102089.38;5080041;27;96815;-34
2022/06/04 14:36:03;;;;;;;16.10;4.38;;;;;;;22.13;51.80;102087.78;5079787;27;100981;-35
2022/06/04 14:38:34;;;;;;;19.13;5.38;;;;;;;22.03;51.80;102071.19;5098471;27;97982;-35
2022/06/04 14:41:05;;;;;;;10.65;4.35;;;;;;;21.99;52.18;102078.84;5097331;27;97645;-35
2022/06/04 14:43:43;;;;;;;11.55;4.13;;;;;;;21.97;51.95;102069.81;5098045;27;96702;-36
2022/06/04 14:46:46;;;;;;;12.38;3.97;;;;;;;21.92;51.96;102069.38;5078767;27;99200;-35
2022/06/04 14:49:54;;;;;;;13.70;4.38;;;;;;;21.93;51.91;102071.13;5097454;27;99206;-34
2022/06/04 14:52:47;;;;;;;10.23;4.20;;;;;;;22.01;52.04;102059.41;5098832;27;96823;-34
2022/06/04 14:55:24;;;;;;;11.82;4.25;;;;;;;22.04;51.97;102048.06;5097625;27;97006;-34
2022/06/04 14:58:19;;;;;;;12.02;4.28;;;;;;;22.13;52.03;102055.50;5078893;27;101199;-35
2022/06/04 15:01:22;;;;;;;10.50;4.03;;;;;;;22.13;51.47;102049.13;5079398;27;101138;-35
2022/06/04 15:03:56;;;;;;;11.63;4.43;;;;;;;22.08;51.75;102049.53;5095654;27;96686;-35
2022/06/04 15:06:28;;;;;;;14.10;5.32;;;;;;;22.11;52.12;102057.53;5096210;27;96603;-35
2022/06/04 15:09:15;;;;;;;11.40;4.00;;;;;;;22.12;51.92;102050.13;5079418;27;100894;-35
2022/06/04 15:12:09;;;;;;;12.73;4.10;;;;;;;22.15;51.85;102044.34;5099016;27;97856;-35
2022/06/04 15:14:51;;;;;;;10.98;4.38;;;;;;;22.11;52.05;102037.34;5097841;27;97026;-35
2022/06/04 15:17:22;;;;;;;8.00;3.53;;;;;;;22.16;51.94;102046.06;5098859;27;96730;-34
2022/06/04 15:20:18;;;;;;;10.68;3.78;;;;;;;22.17;51.51;102047.84;5098923;27;96916;-35
2022/06/04 15:22:47;;;;;;;11.32;4.43;;;;;;;22.12;52.32;102036.31;5079856;27;99244;-35
2022/06/04 15:25:46;;;;;;;9.98;4.15;;;;;;;22.13;51.79;102030.69;5098659;27;96628;-35
2022/06/04 15:34:08;;;;;;;10.57;3.65;;;;;;;22.09;52.40;102053.19;5099460;27;97048;-35
2022/06/04 15:36:38;;;;;;;15.93;4.13;;;;;;;22.07;52.38;102042.25;5079806;27;96709;-35
2022/06/04 15:39:33;;;;;;;15.88;4.22;;;;;;;22.06;52.42;102038.63;5098643;27;96823;-35
2022/06/04 15:42:05;;;;;;;9.77;4.45;;;;;;;22.06;52.15;102027.59;5095010;27;98010;-35
2022/06/04 15:44:30;;;;;;;7.28;4.13;;;;;;;22.10;52.30;102021.81;5097579;27;99062;-35
2022/06/04 15:47:10;;;;;;;9.15;4.10;;;;;;;22.06;52.43;102024.84;5079106;27;96729;-35
2022/06/04 15:56:09;;;;;;;10.70;4.50;;;;;;;22.03;52.59;102027.03;5097475;27;97039;-34
2022/06/04 15:58:34;;;;;;;11.52;4.78;;;;;;;22.03;52.40;102024.25;5094198;27;97001;-35
2022/06/04 16:01:10;;;;;;;12.85;3.88;;;;;;;22.05;52.61;102020.34;5098915;27;96860;-35
2022/06/04 16:03:49;;;;;;;13.55;5.88;;;;;;;22.04;52.42;102007.53;5079551;27;100679;-35
2022/06/04 16:06:15;;;;;;;11.25;5.22;;;;;;;22.03;52.87;102025.13;5079165;27;100948;-36
2022/06/04 16:08:51;;;;;;;12.68;4.03;;;;;;;22.04;52.94;102004.78;5095970;27;96901;-35
2022/06/04 16:11:28;;;;;;;303.30;89.20;;;;;;;22.05;52.89;102006.56;5098619;27;96588;-35
2022/06/04 16:14:02;;;;;;;12.18;5.70;;;;;;;22.09;52.64;102020.06;5079166;27;101098;-35
2022/06/04 16:16:41;;;;;;;23.02;8.73;;;;;;;22.04;52.83;102013.06;5096992;27;97356;-35
2022/06/04 16:19:41;;;;;;;32.15;9.38;;;;;;;22.04;52.70;102009.44;5097481;27;96648;-35
2022/06/04 16:22:15;;;;;;;24.27;9.02;;;;;;;22.00;52.78;102005.22;5078196;27;96753;-36
2022/06/04 16:25:23;;;;;;;15.65;5.53;;;;;;;22.07;52.82;102011.91;5078049;27;101213;-35
2022/06/04 16:28:04;;;;;;;17.83;6.25;;;;;;;22.08;53.64;102013.66;5051257;27;100949;-34
2022/06/04 16:30:30;;;;;;;14.77;6.90;;;;;;;22.06;52.53;102022.09;5078825;27;96602;-35
2022/06/04 16:32:59;;;;;;;18.30;5.30;;;;;;;22.03;53.39;102014.09;5077492;27;97738;-35
2022/06/04 16:35:24;;;;;;;13.88;4.32;;;;;;;22.00;53.08;102014.38;5096805;27;98015;-35
2022/06/04 16:38:16;;;;;;;11.77;4.72;;;;;;;21.98;52.89;102002.59;5096753;27;98397;-36
2022/06/04 16:43:28;;;;;;;12.35;4.43;;;;;;;21.92;53.26;101992.13;5097974;27;96732;-35
2022/06/04 16:45:55;;;;;;;11.98;4.30;;;;;;;21.92;53.26;101996.78;5079039;27;101158;-35
2022/06/04 16:48:30;;;;;;;8.63;4.00;;;;;;;21.85;53.54;102001.97;5097465;27;97297;-35
2022/06/04 16:51:04;;;;;;;7.70;3.50;;;;;;;21.84;53.09;101998.34;5078874;27;96600;-35
2022/06/04 16:53:32;;;;;;;8.93;3.72;;;;;;;21.87;53.16;101988.06;5098110;27;97696;-35
2022/06/04 16:55:58;;;;;;;10.98;4.22;;;;;;;21.80;53.80;101984.97;5078138;27;100852;-35
2022/06/04 16:58:23;;;;;;;14.35;5.65;;;;;;;21.83;53.55;101981.94;5078527;27;101236;-35
2022/06/04 17:01:10;;;;;;;13.30;6.90;;;;;;;21.82;53.66;101985.72;5096885;27;96802;-35
2022/06/04 17:03:59;;;;;;;8.50;4.38;;;;;;;21.79;53.72;101980.47;5079032;27;96772;-35
2022/06/04 17:06:40;;;;;;;10.40;4.03;;;;;;;21.79;53.53;101986.88;5078358;27;101475;-35
2022/06/04 17:09:22;;;;;;;16.95;4.10;;;;;;;21.77;54.04;101983.38;5078347;27;100710;-35
2022/06/04 17:12:10;;;;;;;12.85;5.10;;;;;;;21.76;53.51;101975.22;5078716;27;96569;-35
2022/06/04 17:15:09;;;;;;;10.55;4.45;;;;;;;21.75;53.99;101974.34;5097375;27;96617;-35
2022/06/04 17:17:40;;;;;;;10.82;4.28;;;;;;;21.77;54.01;101982.50;5058973;27;100284;-35
2022/06/04 17:20:24;;;;;;;11.25;3.85;;;;;;;21.79;54.01;101991.53;5097113;27;98703;-35
2022/06/04 17:22:59;;;;;;;14.93;4.50;;;;;;;21.73;53.73;101986.53;5097119;27;96580;-35
2022/06/04 17:26:04;;;;;;;8.20;3.95;;;;;;;21.71;53.97;101985.81;5097373;27;96770;-35
2022/06/04 17:29:07;;;;;;;32.70;11.68;;;;;;;21.64;53.85;101993.75;5077773;27;101508;-35
2022/06/04 17:31:47;;;;;;;15.10;6.03;;;;;;;21.58;53.84;101988.81;5094997;27;97749;-36
2022/06/04 17:34:31;;;;;;;11.15;4.35;;;;;;;21.49;54.41;101985.00;5097143;27;96572;-35
2022/06/04 17:37:15;;;;;;;10.98;4.18;;;;;;;21.54;54.34;101988.19;5078452;27;96727;-35
2022/06/04 17:39:55;;;;;;;10.65;4.10;;;;;;;21.56;54.49;101991.69;5096224;27;99858;-35
2022/06/04 17:42:21;;;;;;;8.77;3.50;;;;;;;21.51;54.63;101977.47;5094277;27;99134;-35
2022/06/04 17:44:46;;;;;;;8.20;3.40;;;;;;;21.45;54.36;101978.00;5094202;27;96580;-35
2022/06/04 17:47:12;;;;;;;15.13;3.70;;;;;;;21.42;54.30;101972.78;5111483;27;96772;-35
2022/06/04 17:49:38;;;;;;;15.40;3.97;;;;;;;21.43;54.79;101971.78;5096495;27;97194;-35
2022/06/04 17:52:06;;;;;;;13.23;5.13;;;;;;;21.39;54.75;101967.50;5095977;27;99159;-35
2022/06/04 17:54:33;;;;;;;11.25;4.35;;;;;;;21.41;54.75;101960.88;5077609;27;96738;-35
2022/06/04 17:57:02;;;;;;;10.98;4.18;;;;;;;21.44;54.64;101969.88;5074344;27;96856;-35
2022/06/04 17:59:28;;;;;;;10.60;3.83;;;;;;;21.39;54.95;101960.13;5112108;27;100983;-35
2022/06/04 18:01:53;;;;;;;5.22;2.80;;;;;;;21.42;54.85;101961.75;5086042;27;98001;-35
2022/06/04 18:04:19;;;;;;;9.25;3.78;;;;;;;21.45;54.93;101966.09;5083588;27;96707;-35
2022/06/04 18:06:44;;;;;;;9.43;3.60;;;;;;;21.42;55.09;101959.00;5091034;27;96755;-36
2022/06/04 18:09:09;;;;;;;7.72;3.65;;;;;;;21.34;54.78;101954.13;5084511;27;98017;-36
2022/06/04 18:11:36;;;;;;;9.55;3.70;;;;;;;21.28;55.05;101953.81;5085711;27;97839;-36
2022/06/04 18:14:01;;;;;;;8.45;3.42;;;;;;;21.26;55.07;101958.59;5065102;27;98147;-35
2022/06/04 18:16:27;;;;;;;7.88;3.83;;;;;;;21.27;55.22;101955.69;5083847;27;96842;-36
2022/06/04 18:18:53;;;;;;;10.93;3.63;;;;;;;21.21;55.47;101951.63;5084454;27;99234;-36
2022/06/04 18:21:19;;;;;;;8.15;3.40;;;;;;;21.22;55.14;101955.25;5091939;27;99273;-35
2022/06/04 18:23:44;;;;;;;10.45;3.88;;;;;;;21.17;55.62;101943.75;5096031;27;96671;-35
2022/06/04 18:26:13;;;;;;;13.15;4.30;;;;;;;21.11;55.67;101944.28;5096139;27;96887;-35
2022/06/04 18:28:39;;;;;;;9.70;3.80;;;;;;;21.12;55.56;101949.69;5076879;27;100773;-35
2022/06/04 18:31:14;;;;;;;7.75;3.58;;;;;;;21.09;55.96;101949.06;5110012;27;101104;-34
2022/06/04 18:33:40;;;;;;;7.82;3.80;;;;;;;21.00;55.84;101931.50;5095933;27;96695;-35
2022/06/04 18:36:07;;;;;;;12.00;4.13;;;;;;;21.03;55.72;101944.13;5096813;27;96705;-35
2022/06/04 18:38:33;;;;;;;8.77;4.00;;;;;;;21.04;55.72;101932.94;5111226;27;100732;-36
2022/06/04 18:41:04;;;;;;;13.50;4.00;;;;;;;21.03;55.85;101935.84;5094946;27;97953;-35
2022/06/04 18:54:45;;;;;;;12.45;3.60;;;;;;;20.74;56.24;101945.66;5072906;27;97175;-35
2022/06/04 18:57:13;;;;;;;8.17;3.63;;;;;;;20.70;56.51;101954.31;5113964;27;97037;-35
2022/06/04 18:59:40;;;;;;;13.70;4.03;;;;;;;20.69;56.48;101947.94;5098471;27;99468;-35
2022/06/04 19:02:11;;;;;;;10.25;3.58;;;;;;;20.58;56.96;101945.25;5099447;27;99181;-35
2022/06/04 19:04:37;;;;;;;11.20;4.47;;;;;;;20.50;56.82;101928.50;5099454;27;96600;-35
2022/06/04 19:08:16;;;;;;;15.10;4.15;;;;;;;20.49;57.25;101937.75;5080560;27;96855;-36
2022/06/04 19:09:49;;;;;;;10.02;4.03;;;;;;;20.37;57.20;101934.16;5098515;27;98802;-36
2022/06/04 19:14:58;;;;;;;11.13;3.83;;;;;;;20.34;57.45;101937.19;5099649;27;96538;-35
2022/06/04 19:17:23;;;;;;;13.18;3.97;;;;;;;20.30;57.23;101935.69;5099271;27;96965;-36
2022/06/04 19:24:36;;;;;;;8.52;3.33;;;;;;;20.31;57.72;101949.34;5098772;27;97922;-35
2022/06/04 19:25:18;;;;;;;12.25;3.92;;;;;;;20.10;57.91;101940.16;5099482;27;96615;-35
2022/06/04 19:27:44;;;;;;;7.75;3.50;;;;;;;20.11;57.82;101942.75;5099464;27;96881;-35
2022/06/04 19:30:10;;;;;;;11.27;3.63;;;;;;;20.06;58.32;101938.66;5098071;27;97387;-35
2022/06/04 19:32:36;;;;;;;12.90;4.45;;;;;;;19.96;58.86;101932.19;5079789;27;101523;-35
2022/06/04 19:35:02;;;;;;;10.32;4.38;;;;;;;19.86;58.16;101940.34;5098617;27;96671;-35
2022/06/04 19:37:27;;;;;;;14.15;4.53;;;;;;;19.85;58.13;101944.94;5098700;27;96790;-35
2022/06/04 19:39:53;;;;;;;13.00;4.13;;;;;;;19.79;58.63;101944.63;5079801;27;101239;-35
2022/06/04 19:42:19;;;;;;;11.88;3.78;;;;;;;19.69;58.81;101950.88;5098602;27;97796;-35
2022/06/04 19:44:44;;;;;;;9.27;3.28;;;;;;;19.63;58.68;101942.22;5098951;27;96968;-35
2022/06/04 19:47:12;;;;;;;11.85;3.85;;;;;;;19.67;59.21;101969.34;5098898;27;96793;-35
2022/06/04 19:49:40;;;;;;;7.80;3.63;;;;;;;19.61;58.91;101969.81;5079710;27;100989;-35
2022/06/04 19:52:10;;;;;;;9.85;4.05;;;;;;;19.60;59.08;101970.84;5080073;27;100510;-35
2022/06/04 19:57:20;;;;;;;8.13;3.90;;;;;;;19.48;58.99;101983.72;5098844;27;96717;-35
2022/06/04 19:59:47;;;;;;;13.13;4.10;;;;;;;19.44;59.79;101984.94;5097843;27;97987;-35
2022/06/04 20:02:14;;;;;;;9.55;4.18;;;;;;;19.40;59.18;101988.97;5079577;27;101011;-35
2022/06/04 20:04:41;;;;;;;13.02;3.90;;;;;;;19.35;59.50;101991.19;5079916;27;96523;-35
2022/06/04 20:07:10;;;;;;;9.57;3.78;;;;;;;19.34;59.28;101994.94;5079947;27;96812;-35
2022/06/04 20:09:36;;;;;;;9.63;3.78;;;;;;;19.31;59.75;101987.81;5079113;27;100905;-35
2022/06/04 20:12:02;;;;;;;8.93;3.60;;;;;;;19.31;59.73;101997.94;5097760;27;97899;-35
2022/06/04 20:14:28;;;;;;;10.10;3.60;;;;;;;19.30;60.00;101985.19;5079738;27;96554;-35
2022/06/04 20:16:54;;;;;;;13.50;4.32;;;;;;;19.31;60.01;101996.06;5079911;27;96821;-35
2022/06/04 20:19:19;;;;;;;5.55;3.00;;;;;;;19.23;59.62;101995.78;5098107;27;97506;-35